sensor_id;sensor_type;location;lat;lon;timestamp;pressure;altitude;pressure_sealevel;temperature;humidity
37858;BME280;23695;55.868;37.472;2024-03-17T00:01:18;99741.97;;;2.13;63.24
37858;BME280;23695;55.868;37.472;2024-03-17T00:03:44;99747.28;;;2.13;63.41
37858;BME280;23695;55.868;37.472;2024-03-17T00:06:09;99741.66;;;2.10;63.33
37858;BME280;23695;55.868;37.472;2024-03-17T00:08:35;99734.22;;;2.12;63.78
37858;BME280;23695;55.868;37.472;2024-03-17T00:11:01;99747.78;;;2.05;64.10
37858;BME280;23695;55.868;37.472;2024-03-17T00:13:27;99742.44;;;2.00;63.42
37858;BME280;23695;55.868;37.472;2024-03-17T00:15:52;99737.13;;;2.05;63.47
37858;BME280;23695;55.868;37.472;2024-03-17T00:18:18;99741.38;;;2.01;64.03
37858;BME280;23695;55.868;37.472;2024-03-17T00:20:44;99739.25;;;1.98;63.61
37858;BME280;23695;55.868;37.472;2024-03-17T00:23:10;99746.13;;;1.94;63.97
37858;BME280;23695;55.868;37.472;2024-03-17T00:25:35;99743.16;;;1.85;64.16
37858;BME280;23695;55.868;37.472;2024-03-17T00:28:01;99736.53;;;1.88;63.60
37858;BME280;23695;55.868;37.472;2024-03-17T00:30:27;99741.59;;;1.89;63.79
37858;BME280;23695;55.868;37.472;2024-03-17T00:32:53;99743.16;;;1.80;63.97
37858;BME280;23695;55.868;37.472;2024-03-17T00:35:19;99736.25;;;1.79;64.19
37858;BME280;23695;55.868;37.472;2024-03-17T00:37:45;99738.06;;;1.74;64.49
37858;BME280;23695;55.868;37.472;2024-03-17T00:40:11;99734.34;;;1.69;64.66
37858;BME280;23695;55.868;37.472;2024-03-17T00:42:36;99737.81;;;1.70;64.05
37858;BME280;23695;55.868;37.472;2024-03-17T00:45:02;99734.88;;;1.72;64.49
37858;BME280;23695;55.868;37.472;2024-03-17T00:47:29;99736.22;;;1.74;64.18
37858;BME280;23695;55.868;37.472;2024-03-17T00:49:55;99737.00;;;1.75;63.53
37858;BME280;23695;55.868;37.472;2024-03-17T00:52:20;99735.13;;;1.70;64.25
37858;BME280;23695;55.868;37.472;2024-03-17T00:54:49;99725.50;;;1.64;64.48
37858;BME280;23695;55.868;37.472;2024-03-17T00:57:15;99718.59;;;1.63;64.81
37858;BME280;23695;55.868;37.472;2024-03-17T00:59:42;99727.66;;;1.67;64.03
37858;BME280;23695;55.868;37.472;2024-03-17T01:02:08;99715.13;;;1.62;64.32
37858;BME280;23695;55.868;37.472;2024-03-17T01:04:33;99710.59;;;1.63;64.42
37858;BME280;23695;55.868;37.472;2024-03-17T01:06:59;99710.34;;;1.64;64.12
37858;BME280;23695;55.868;37.472;2024-03-17T01:09:25;99702.63;;;1.63;64.33
37858;BME280;23695;55.868;37.472;2024-03-17T01:11:51;99704.19;;;1.59;64.19
37858;BME280;23695;55.868;37.472;2024-03-17T01:14:17;99706.03;;;1.58;64.93
37858;BME280;23695;55.868;37.472;2024-03-17T01:16:42;99704.44;;;1.57;64.83
37858;BME280;23695;55.868;37.472;2024-03-17T01:19:08;99709.50;;;1.59;64.64
37858;BME280;23695;55.868;37.472;2024-03-17T01:21:34;99704.44;;;1.57;64.57
37858;BME280;23695;55.868;37.472;2024-03-17T01:23:59;99700.72;;;1.58;64.44
37858;BME280;23695;55.868;37.472;2024-03-17T01:26:25;99701.00;;;1.57;65.11
37858;BME280;23695;55.868;37.472;2024-03-17T01:28:51;99706.03;;;1.53;64.70
37858;BME280;23695;55.868;37.472;2024-03-17T01:31:16;99706.31;;;1.52;65.22
37858;BME280;23695;55.868;37.472;2024-03-17T01:33:42;99696.72;;;1.51;64.67
37858;BME280;23695;55.868;37.472;2024-03-17T01:36:08;99694.03;;;1.46;64.83
37858;BME280;23695;55.868;37.472;2024-03-17T01:38:34;99699.59;;;1.44;65.05
37858;BME280;23695;55.868;37.472;2024-03-17T01:40:59;99689.97;;;1.33;65.07
37858;BME280;23695;55.868;37.472;2024-03-17T01:43:26;99696.59;;;1.30;65.40
37858;BME280;23695;55.868;37.472;2024-03-17T01:45:52;99692.06;;;1.26;65.56
37858;BME280;23695;55.868;37.472;2024-03-17T01:48:17;99696.28;;;1.22;65.06
37858;BME280;23695;55.868;37.472;2024-03-17T01:50:44;99691.47;;;1.19;65.04
37858;BME280;23695;55.868;37.472;2024-03-17T01:53:12;99689.09;;;1.17;65.57
37858;BME280;23695;55.868;37.472;2024-03-17T01:55:40;99697.81;;;1.12;65.50
37858;BME280;23695;55.868;37.472;2024-03-17T01:58:06;99690.38;;;1.09;65.33
37858;BME280;23695;55.868;37.472;2024-03-17T02:00:31;99691.97;;;1.10;65.51
37858;BME280;23695;55.868;37.472;2024-03-17T02:02:57;99684.47;;;1.02;65.34
37858;BME280;23695;55.868;37.472;2024-03-17T02:05:23;99688.72;;;1.03;65.87
37858;BME280;23695;55.868;37.472;2024-03-17T02:07:49;99684.44;;;0.97;65.71
37858;BME280;23695;55.868;37.472;2024-03-17T02:10:14;99679.94;;;0.98;65.76
37858;BME280;23695;55.868;37.472;2024-03-17T02:12:40;99683.91;;;1.00;65.82
37858;BME280;23695;55.868;37.472;2024-03-17T02:15:06;99673.53;;;0.99;65.54
37858;BME280;23695;55.868;37.472;2024-03-17T02:17:33;99682.31;;;0.99;66.12
37858;BME280;23695;55.868;37.472;2024-03-17T02:20:03;99684.94;;;0.94;65.62
37858;BME280;23695;55.868;37.472;2024-03-17T02:22:29;99679.63;;;0.94;65.68
37858;BME280;23695;55.868;37.472;2024-03-17T02:24:54;99682.53;;;0.93;65.97
37858;BME280;23695;55.868;37.472;2024-03-17T02:27:20;99680.69;;;0.93;65.84
37858;BME280;23695;55.868;37.472;2024-03-17T02:29:46;99679.81;;;0.88;66.08
37858;BME280;23695;55.868;37.472;2024-03-17T02:32:11;99675.84;;;0.85;66.39
37858;BME280;23695;55.868;37.472;2024-03-17T02:34:38;99677.97;;;0.88;65.87
37858;BME280;23695;55.868;37.472;2024-03-17T02:37:05;99667.09;;;0.90;66.15
37858;BME280;23695;55.868;37.472;2024-03-17T02:39:31;99674.50;;;0.88;65.47
37858;BME280;23695;55.868;37.472;2024-03-17T02:41:57;99673.16;;;0.85;66.17
37858;BME280;23695;55.868;37.472;2024-03-17T02:44:23;99667.06;;;0.84;66.05
37858;BME280;23695;55.868;37.472;2024-03-17T02:46:48;99666.31;;;0.89;65.51
37858;BME280;23695;55.868;37.472;2024-03-17T02:49:14;99675.75;;;0.75;66.44
37858;BME280;23695;55.868;37.472;2024-03-17T02:51:40;99667.00;;;0.79;66.15
37858;BME280;23695;55.868;37.472;2024-03-17T02:54:05;99663.59;;;0.84;65.68
37858;BME280;23695;55.868;37.472;2024-03-17T02:56:31;99669.44;;;0.81;66.32
37858;BME280;23695;55.868;37.472;2024-03-17T02:58:57;99671.03;;;0.82;65.94
37858;BME280;23695;55.868;37.472;2024-03-17T03:01:22;99667.84;;;0.80;66.34
37858;BME280;23695;55.868;37.472;2024-03-17T03:03:48;99664.59;;;0.78;66.14
37858;BME280;23695;55.868;37.472;2024-03-17T03:06:15;99661.16;;;0.77;66.54
37858;BME280;23695;55.868;37.472;2024-03-17T03:08:41;99661.69;;;0.79;66.10
37858;BME280;23695;55.868;37.472;2024-03-17T03:11:09;99664.59;;;0.78;66.80
37858;BME280;23695;55.868;37.472;2024-03-17T03:13:35;99656.16;;;0.86;66.51
37858;BME280;23695;55.868;37.472;2024-03-17T03:16:00;99654.63;;;0.95;66.92
37858;BME280;23695;55.868;37.472;2024-03-17T03:18:26;99658.69;;;1.08;65.75
37858;BME280;23695;55.868;37.472;2024-03-17T03:20:52;99660.09;;;1.21;66.82
37858;BME280;23695;55.868;37.472;2024-03-17T03:23:18;99659.34;;;1.30;66.27
37858;BME280;23695;55.868;37.472;2024-03-17T03:25:44;99658.59;;;1.40;65.84
37858;BME280;23695;55.868;37.472;2024-03-17T03:28:10;99657.06;;;1.54;65.56
37858;BME280;23695;55.868;37.472;2024-03-17T03:30:36;99654.16;;;1.61;65.57
37858;BME280;23695;55.868;37.472;2024-03-17T03:33:02;99656.56;;;1.67;65.67
37858;BME280;23695;55.868;37.472;2024-03-17T03:35:28;99651.53;;;1.76;65.35
37858;BME280;23695;55.868;37.472;2024-03-17T03:37:54;99650.78;;;1.86;65.65
37858;BME280;23695;55.868;37.472;2024-03-17T03:40:19;99655.28;;;1.85;65.25
37858;BME280;23695;55.868;37.472;2024-03-17T03:42:45;99652.38;;;1.92;65.35
37858;BME280;23695;55.868;37.472;2024-03-17T03:45:11;99654.75;;;1.83;65.31
37858;BME280;23695;55.868;37.472;2024-03-17T03:47:37;99652.94;;;1.99;65.16
37858;BME280;23695;55.868;37.472;2024-03-17T03:50:03;99644.44;;;2.07;64.77
37858;BME280;23695;55.868;37.472;2024-03-17T03:52:29;99644.97;;;2.09;64.76
37858;BME280;23695;55.868;37.472;2024-03-17T03:54:55;99648.19;;;2.21;64.48
37858;BME280;23695;55.868;37.472;2024-03-17T03:57:21;99640.19;;;2.26;64.19
37858;BME280;23695;55.868;37.472;2024-03-17T03:59:47;99639.13;;;2.33;63.81
37858;BME280;23695;55.868;37.472;2024-03-17T04:02:13;99636.72;;;2.41;64.20
37858;BME280;23695;55.868;37.472;2024-03-17T04:04:39;99640.75;;;2.49;63.57
37858;BME280;23695;55.868;37.472;2024-03-17T04:07:05;99631.66;;;2.55;64.09
37858;BME280;23695;55.868;37.472;2024-03-17T04:09:30;99629.78;;;2.61;63.50
37858;BME280;23695;55.868;37.472;2024-03-17T04:11:56;99629.78;;;2.71;63.47
37858;BME280;23695;55.868;37.472;2024-03-17T04:14:22;99628.19;;;2.75;63.48
37858;BME280;23695;55.868;37.472;2024-03-17T04:16:48;99624.72;;;2.84;63.46
37858;BME280;23695;55.868;37.472;2024-03-17T04:19:13;99619.34;;;2.90;63.59
37858;BME280;23695;55.868;37.472;2024-03-17T04:21:39;99619.88;;;3.02;63.50
37858;BME280;23695;55.868;37.472;2024-03-17T04:24:05;99616.66;;;3.10;62.87
37858;BME280;23695;55.868;37.472;2024-03-17T04:26:30;99613.44;;;3.08;62.53
37858;BME280;23695;55.868;37.472;2024-03-17T04:28:56;99610.19;;;3.21;62.63
37858;BME280;23695;55.868;37.472;2024-03-17T04:31:22;99614.97;;;3.24;62.38
37858;BME280;23695;55.868;37.472;2024-03-17T04:33:48;99613.91;;;3.30;62.20
37858;BME280;23695;55.868;37.472;2024-03-17T04:36:14;99608.78;;;3.39;62.35
37858;BME280;23695;55.868;37.472;2024-03-17T04:38:40;99617.84;;;3.43;61.67
37858;BME280;23695;55.868;37.472;2024-03-17T04:41:06;99611.13;;;3.51;62.06
37858;BME280;23695;55.868;37.472;2024-03-17T04:43:32;99607.72;;;3.45;61.95
37858;BME280;23695;55.868;37.472;2024-03-17T04:46:01;99606.88;;;3.55;60.98
37858;BME280;23695;55.868;37.472;2024-03-17T04:48:28;99603.34;;;3.64;61.18
37858;BME280;23695;55.868;37.472;2024-03-17T04:50:53;99605.75;;;3.61;61.16
37858;BME280;23695;55.868;37.472;2024-03-17T04:53:19;99613.72;;;3.71;60.48
37858;BME280;23695;55.868;37.472;2024-03-17T04:55:45;99611.81;;;3.77;60.60
37858;BME280;23695;55.868;37.472;2024-03-17T04:58:10;99616.06;;;3.78;60.34
37858;BME280;23695;55.868;37.472;2024-03-17T05:00:36;99610.13;;;3.91;60.38
37858;BME280;23695;55.868;37.472;2024-03-17T05:03:02;99612.00;;;3.90;60.46
37858;BME280;23695;55.868;37.472;2024-03-17T05:05:28;99619.38;;;4.04;60.31
37858;BME280;23695;55.868;37.472;2024-03-17T05:07:53;99610.97;;;4.25;59.58
37858;BME280;23695;55.868;37.472;2024-03-17T05:10:19;99609.09;;;4.26;59.30
37858;BME280;23695;55.868;37.472;2024-03-17T05:12:45;99600.19;;;4.36;59.35
37858;BME280;23695;55.868;37.472;2024-03-17T05:15:10;99605.22;;;4.42;58.79
37858;BME280;23695;55.868;37.472;2024-03-17T05:17:36;99606.91;;;4.62;58.66
37858;BME280;23695;55.868;37.472;2024-03-17T05:20:02;99603.91;;;4.69;58.45
37858;BME280;23695;55.868;37.472;2024-03-17T05:22:28;99600.78;;;4.86;58.45
37858;BME280;23695;55.868;37.472;2024-03-17T05:24:54;99606.28;;;4.99;57.79
37858;BME280;23695;55.868;37.472;2024-03-17T05:27:19;99601.44;;;5.01;57.55
37858;BME280;23695;55.868;37.472;2024-03-17T05:29:45;99603.16;;;5.16;57.27
37858;BME280;23695;55.868;37.472;2024-03-17T05:32:11;99606.31;;;5.42;57.09
37858;BME280;23695;55.868;37.472;2024-03-17T05:34:37;99615.19;;;5.61;56.59
37858;BME280;23695;55.868;37.472;2024-03-17T05:37:03;99609.91;;;5.75;56.37
37858;BME280;23695;55.868;37.472;2024-03-17T05:39:29;99615.78;;;5.77;56.11
37858;BME280;23695;55.868;37.472;2024-03-17T05:41:54;99615.53;;;5.74;55.79
37858;BME280;23695;55.868;37.472;2024-03-17T05:44:20;99613.63;;;5.98;55.73
37858;BME280;23695;55.868;37.472;2024-03-17T05:46:46;99618.13;;;6.03;55.10
37858;BME280;23695;55.868;37.472;2024-03-17T05:49:11;99618.31;;;6.25;55.33
37858;BME280;23695;55.868;37.472;2024-03-17T05:51:37;99615.84;;;6.47;54.93
37858;BME280;23695;55.868;37.472;2024-03-17T05:54:03;99615.28;;;6.64;54.65
37858;BME280;23695;55.868;37.472;2024-03-17T05:56:29;99620.88;;;6.81;54.08
37858;BME280;23695;55.868;37.472;2024-03-17T05:58:54;99621.00;;;6.90;53.76
37858;BME280;23695;55.868;37.472;2024-03-17T06:01:20;99617.22;;;7.05;53.51
37858;BME280;23695;55.868;37.472;2024-03-17T06:03:46;99621.22;;;7.07;53.12
37858;BME280;23695;55.868;37.472;2024-03-17T06:06:12;99619.25;;;6.67;53.73
37858;BME280;23695;55.868;37.472;2024-03-17T06:08:38;99620.03;;;7.00;52.94
37858;BME280;23695;55.868;37.472;2024-03-17T06:11:03;99620.94;;;7.09;53.06
37858;BME280;23695;55.868;37.472;2024-03-17T06:13:29;99615.75;;;7.26;52.61
37858;BME280;23695;55.868;37.472;2024-03-17T06:15:55;99620.09;;;7.50;52.45
37858;BME280;23695;55.868;37.472;2024-03-17T06:18:21;99617.31;;;7.69;52.15
37858;BME280;23695;55.868;37.472;2024-03-17T06:20:47;99616.56;;;7.90;51.72
37858;BME280;23695;55.868;37.472;2024-03-17T06:23:15;99613.72;;;8.09;51.23
37858;BME280;23695;55.868;37.472;2024-03-17T06:25:45;99611.53;;;8.34;50.52
37858;BME280;23695;55.868;37.472;2024-03-17T06:28:13;99603.88;;;8.72;50.31
37858;BME280;23695;55.868;37.472;2024-03-17T06:30:45;99593.44;;;9.01;49.43
37858;BME280;23695;55.868;37.472;2024-03-17T06:33:13;99589.22;;;9.26;49.11
37858;BME280;23695;55.868;37.472;2024-03-17T06:35:39;99588.66;;;9.55;48.15
37858;BME280;23695;55.868;37.472;2024-03-17T06:38:06;99589.66;;;9.77;47.82
37858;BME280;23695;55.868;37.472;2024-03-17T06:40:31;99585.06;;;10.03;47.19
37858;BME280;23695;55.868;37.472;2024-03-17T06:42:57;99586.31;;;10.32;46.45
37858;BME280;23695;55.868;37.472;2024-03-17T06:45:23;99577.38;;;10.66;46.16
37858;BME280;23695;55.868;37.472;2024-03-17T06:47:48;99583.50;;;10.84;45.34
37858;BME280;23695;55.868;37.472;2024-03-17T06:50:14;99579.81;;;10.97;45.33
37858;BME280;23695;55.868;37.472;2024-03-17T06:52:40;99580.88;;;11.13;44.71
37858;BME280;23695;55.868;37.472;2024-03-17T06:55:06;99580.28;;;10.99;44.02
37858;BME280;23695;55.868;37.472;2024-03-17T06:57:33;99582.22;;;10.90;43.97
37858;BME280;23695;55.868;37.472;2024-03-17T06:59:59;99581.09;;;10.91;43.94
37858;BME280;23695;55.868;37.472;2024-03-17T07:02:25;99583.94;;;10.94;43.96
37858;BME280;23695;55.868;37.472;2024-03-17T07:04:50;99584.97;;;10.81;44.24
37858;BME280;23695;55.868;37.472;2024-03-17T07:07:16;99582.31;;;11.02;44.08
37858;BME280;23695;55.868;37.472;2024-03-17T07:09:42;99574.59;;;11.21;44.25
37858;BME280;23695;55.868;37.472;2024-03-17T07:12:09;99573.78;;;11.29;44.16
37858;BME280;23695;55.868;37.472;2024-03-17T07:14:35;99571.19;;;11.42;43.60
37858;BME280;23695;55.868;37.472;2024-03-17T07:17:04;99572.19;;;11.58;43.43
37858;BME280;23695;55.868;37.472;2024-03-17T07:19:30;99576.59;;;11.62;42.61
37858;BME280;23695;55.868;37.472;2024-03-17T07:21:57;99573.50;;;11.73;43.35
37858;BME280;23695;55.868;37.472;2024-03-17T07:24:23;99565.38;;;11.73;42.78
37858;BME280;23695;55.868;37.472;2024-03-17T07:26:48;99560.19;;;11.38;43.67
37858;BME280;23695;55.868;37.472;2024-03-17T07:29:15;99561.38;;;11.28;43.51
37858;BME280;23695;55.868;37.472;2024-03-17T07:31:41;99564.69;;;11.34;43.28
37858;BME280;23695;55.868;37.472;2024-03-17T07:34:08;99565.13;;;11.15;42.78
37858;BME280;23695;55.868;37.472;2024-03-17T07:36:34;99566.97;;;11.23;43.05
37858;BME280;23695;55.868;37.472;2024-03-17T07:38:59;99563.38;;;11.11;43.34
37858;BME280;23695;55.868;37.472;2024-03-17T07:41:25;99553.91;;;10.96;42.94
37858;BME280;23695;55.868;37.472;2024-03-17T07:43:51;99554.47;;;10.72;43.60
37858;BME280;23695;55.868;37.472;2024-03-17T07:46:16;99553.22;;;10.69;43.84
37858;BME280;23695;55.868;37.472;2024-03-17T07:48:44;99554.72;;;10.15;44.10
37858;BME280;23695;55.868;37.472;2024-03-17T07:51:12;99538.88;;;9.87;45.05
37858;BME280;23695;55.868;37.472;2024-03-17T07:53:41;99538.84;;;9.61;45.43
37858;BME280;23695;55.868;37.472;2024-03-17T07:56:11;99537.94;;;9.83;45.37
37858;BME280;23695;55.868;37.472;2024-03-17T07:58:39;99527.94;;;9.58;46.01
37858;BME280;23695;55.868;37.472;2024-03-17T08:01:07;99533.78;;;9.69;45.37
37858;BME280;23695;55.868;37.472;2024-03-17T08:03:34;99538.41;;;9.85;45.64
37858;BME280;23695;55.868;37.472;2024-03-17T08:06:01;99538.88;;;9.70;45.84
37858;BME280;23695;55.868;37.472;2024-03-17T08:08:28;99543.47;;;9.78;45.72
37858;BME280;23695;55.868;37.472;2024-03-17T08:10:54;99534.13;;;9.67;45.99
37858;BME280;23695;55.868;37.472;2024-03-17T08:13:21;99531.72;;;9.57;46.13
37858;BME280;23695;55.868;37.472;2024-03-17T08:15:58;99541.69;;;9.39;46.55
37858;BME280;23695;55.868;37.472;2024-03-17T08:18:25;99538.78;;;9.18;47.47
37858;BME280;23695;55.868;37.472;2024-03-17T08:20:50;99532.75;;;9.04;47.98
37858;BME280;23695;55.868;37.472;2024-03-17T08:23:16;99532.63;;;9.26;47.58
37858;BME280;23695;55.868;37.472;2024-03-17T08:25:42;99544.16;;;9.09;47.42
37858;BME280;23695;55.868;37.472;2024-03-17T08:28:16;99541.25;;;9.72;46.72
37858;BME280;23695;55.868;37.472;2024-03-17T08:30:42;99543.94;;;10.15;46.06
37858;BME280;23695;55.868;37.472;2024-03-17T08:33:08;99536.41;;;10.55;45.21
37858;BME280;23695;55.868;37.472;2024-03-17T08:35:34;99532.63;;;10.47;45.51
37858;BME280;23695;55.868;37.472;2024-03-17T08:37:59;99538.13;;;10.60;45.12
37858;BME280;23695;55.868;37.472;2024-03-17T08:40:25;99541.97;;;9.12;46.31
37858;BME280;23695;55.868;37.472;2024-03-17T08:42:51;99544.91;;;9.93;45.50
37858;BME280;23695;55.868;37.472;2024-03-17T08:45:16;99534.41;;;10.43;45.06
37858;BME280;23695;55.868;37.472;2024-03-17T08:47:42;99540.94;;;9.90;46.18
37858;BME280;23695;55.868;37.472;2024-03-17T08:50:08;99542.53;;;9.91;45.66
37858;BME280;23695;55.868;37.472;2024-03-17T08:52:34;99553.25;;;8.51;47.75
37858;BME280;23695;55.868;37.472;2024-03-17T08:55:00;99533.78;;;9.60;45.78
37858;BME280;23695;55.868;37.472;2024-03-17T08:57:26;99530.47;;;9.63;46.18
37858;BME280;23695;55.868;37.472;2024-03-17T08:59:54;99528.59;;;9.72;45.80
37858;BME280;23695;55.868;37.472;2024-03-17T09:02:20;99526.81;;;9.68;45.93
37858;BME280;23695;55.868;37.472;2024-03-17T09:04:46;99529.97;;;9.61;45.92
37858;BME280;23695;55.868;37.472;2024-03-17T09:07:11;99528.56;;;9.55;46.25
37858;BME280;23695;55.868;37.472;2024-03-17T09:09:37;99527.78;;;9.63;45.87
37858;BME280;23695;55.868;37.472;2024-03-17T09:12:03;99520.78;;;9.71;46.07
37858;BME280;23695;55.868;37.472;2024-03-17T09:14:28;99525.56;;;9.91;45.58
37858;BME280;23695;55.868;37.472;2024-03-17T09:16:54;99532.19;;;10.11;45.77
37858;BME280;23695;55.868;37.472;2024-03-17T09:19:20;99525.19;;;10.36;45.47
37858;BME280;23695;55.868;37.472;2024-03-17T09:21:45;99530.44;;;10.32;44.95
37858;BME280;23695;55.868;37.472;2024-03-17T09:24:11;99529.59;;;10.49;44.81
37858;BME280;23695;55.868;37.472;2024-03-17T09:26:37;99523.63;;;10.35;44.65
37858;BME280;23695;55.868;37.472;2024-03-17T09:29:02;99521.38;;;10.37;44.60
37858;BME280;23695;55.868;37.472;2024-03-17T09:31:28;99516.16;;;9.97;45.35
37858;BME280;23695;55.868;37.472;2024-03-17T09:33:54;99526.94;;;10.32;44.76
37858;BME280;23695;55.868;37.472;2024-03-17T09:36:20;99526.81;;;10.28;45.26
37858;BME280;23695;55.868;37.472;2024-03-17T09:38:46;99519.94;;;10.39;44.98
37858;BME280;23695;55.868;37.472;2024-03-17T09:41:30;99522.31;;;10.41;44.28
37858;BME280;23695;55.868;37.472;2024-03-17T09:43:57;99519.22;;;10.60;44.28
37858;BME280;23695;55.868;37.472;2024-03-17T09:46:24;99523.91;;;10.33;44.82
37858;BME280;23695;55.868;37.472;2024-03-17T09:48:50;99526.81;;;10.28;44.83
37858;BME280;23695;55.868;37.472;2024-03-17T09:51:21;99536.63;;;10.24;44.92
37858;BME280;23695;55.868;37.472;2024-03-17T09:53:47;99528.69;;;9.32;46.73
37858;BME280;23695;55.868;37.472;2024-03-17T09:56:18;99541.41;;;10.18;45.01
37858;BME280;23695;55.868;37.472;2024-03-17T09:58:44;99530.28;;;10.11;45.07
37858;BME280;23695;55.868;37.472;2024-03-17T10:01:10;99538.38;;;10.29;44.63
37858;BME280;23695;55.868;37.472;2024-03-17T10:03:49;99530.13;;;10.16;44.69
37858;BME280;23695;55.868;37.472;2024-03-17T10:06:15;99526.31;;;10.17;44.59
37858;BME280;23695;55.868;37.472;2024-03-17T10:08:51;99533.66;;;10.00;44.79
37858;BME280;23695;55.868;37.472;2024-03-17T10:11:18;99524.75;;;10.25;44.83
37858;BME280;23695;55.868;37.472;2024-03-17T10:13:46;99527.56;;;10.37;44.31
37858;BME280;23695;55.868;37.472;2024-03-17T10:16:27;99518.72;;;10.11;44.94
37858;BME280;23695;55.868;37.472;2024-03-17T10:19:08;99533.47;;;10.05;44.98
37858;BME280;23695;55.868;37.472;2024-03-17T10:21:34;99518.06;;;10.05;45.24
37858;BME280;23695;55.868;37.472;2024-03-17T10:26:47;99522.84;;;10.08;44.99
37858;BME280;23695;55.868;37.472;2024-03-17T10:29:26;99517.09;;;10.18;44.75
37858;BME280;23695;55.868;37.472;2024-03-17T10:31:53;99522.53;;;9.92;45.34
37858;BME280;23695;55.868;37.472;2024-03-17T10:34:21;99518.06;;;9.97;45.45
37858;BME280;23695;55.868;37.472;2024-03-17T10:36:47;99521.25;;;10.07;45.30
37858;BME280;23695;55.868;37.472;2024-03-17T10:39:24;99524.13;;;9.93;45.65
37858;BME280;23695;55.868;37.472;2024-03-17T10:41:50;99512.88;;;9.91;45.53
37858;BME280;23695;55.868;37.472;2024-03-17T10:44:16;99514.78;;;9.65;46.00
37858;BME280;23695;55.868;37.472;2024-03-17T10:46:42;99516.97;;;9.72;46.11
37858;BME280;23695;55.868;37.472;2024-03-17T10:49:09;99508.72;;;9.68;45.83
37858;BME280;23695;55.868;37.472;2024-03-17T10:51:37;99510.50;;;9.55;46.07
37858;BME280;23695;55.868;37.472;2024-03-17T10:54:03;99512.41;;;9.63;46.41
37858;BME280;23695;55.868;37.472;2024-03-17T10:56:29;99500.16;;;9.92;45.58
37858;BME280;23695;55.868;37.472;2024-03-17T10:58:55;99498.84;;;10.07;45.83
37858;BME280;23695;55.868;37.472;2024-03-17T11:01:25;99495.09;;;9.99;45.88
37858;BME280;23695;55.868;37.472;2024-03-17T11:03:51;99490.47;;;10.08;45.43
37858;BME280;23695;55.868;37.472;2024-03-17T11:06:18;99483.19;;;10.00;45.80
37858;BME280;23695;55.868;37.472;2024-03-17T11:08:44;99491.09;;;9.97;45.69
37858;BME280;23695;55.868;37.472;2024-03-17T11:11:10;99481.88;;;9.98;45.48
37858;BME280;23695;55.868;37.472;2024-03-17T11:13:35;99483.81;;;9.88;45.49
37858;BME280;23695;55.868;37.472;2024-03-17T11:16:01;99487.94;;;9.86;45.74
37858;BME280;23695;55.868;37.472;2024-03-17T11:18:29;99478.94;;;9.56;46.58
37858;BME280;23695;55.868;37.472;2024-03-17T11:20:59;99480.34;;;9.62;46.45
37858;BME280;23695;55.868;37.472;2024-03-17T11:23:29;99482.88;;;9.76;46.24
37858;BME280;23695;55.868;37.472;2024-03-17T11:25:55;99483.34;;;9.69;46.37
37858;BME280;23695;55.868;37.472;2024-03-17T11:34:03;99482.88;;;9.93;45.88
37858;BME280;23695;55.868;37.472;2024-03-17T11:36:48;99475.88;;;10.01;45.46
37858;BME280;23695;55.868;37.472;2024-03-17T11:39:13;99482.06;;;9.92;45.59
37858;BME280;23695;55.868;37.472;2024-03-17T11:41:40;99477.94;;;9.95;45.72
37858;BME280;23695;55.868;37.472;2024-03-17T11:49:24;99481.09;;;9.97;45.89
37858;BME280;23695;55.868;37.472;2024-03-17T11:51:51;99494.28;;;9.99;45.35
37858;BME280;23695;55.868;37.472;2024-03-17T11:54:20;99491.28;;;9.83;46.03
37858;BME280;23695;55.868;37.472;2024-03-17T11:56:48;99490.97;;;9.58;46.22
37858;BME280;23695;55.868;37.472;2024-03-17T11:59:15;99488.75;;;9.52;46.35
37858;BME280;23695;55.868;37.472;2024-03-17T12:01:42;99499.16;;;9.19;46.60
37858;BME280;23695;55.868;37.472;2024-03-17T12:04:08;99495.19;;;9.07;46.85
37858;BME280;23695;55.868;37.472;2024-03-17T12:06:33;99492.97;;;9.18;46.95
37858;BME280;23695;55.868;37.472;2024-03-17T12:09:23;99485.69;;;9.10;47.54
37858;BME280;23695;55.868;37.472;2024-03-17T12:12:08;99485.19;;;9.08;47.43
37858;BME280;23695;55.868;37.472;2024-03-17T12:14:41;99486.66;;;9.23;47.27
37858;BME280;23695;55.868;37.472;2024-03-17T12:17:11;99485.69;;;9.27;47.25
37858;BME280;23695;55.868;37.472;2024-03-17T12:19:55;99485.41;;;9.29;47.24
37858;BME280;23695;55.868;37.472;2024-03-17T12:22:23;99484.78;;;9.41;46.72
37858;BME280;23695;55.868;37.472;2024-03-17T12:24:51;99480.81;;;9.38;46.81
37858;BME280;23695;55.868;37.472;2024-03-17T12:27:24;99483.97;;;9.31;47.27
37858;BME280;23695;55.868;37.472;2024-03-17T12:29:51;99483.34;;;9.43;46.68
37858;BME280;23695;55.868;37.472;2024-03-17T12:32:36;99484.47;;;9.42;46.75
37858;BME280;23695;55.868;37.472;2024-03-17T12:35:02;99489.06;;;9.42;46.87
37858;BME280;23695;55.868;37.472;2024-03-17T12:37:36;99487.31;;;9.28;47.17
37858;BME280;23695;55.868;37.472;2024-03-17T12:40:03;99479.81;;;9.17;47.23
37858;BME280;23695;55.868;37.472;2024-03-17T12:42:29;99476.78;;;8.92;47.69
37858;BME280;23695;55.868;37.472;2024-03-17T12:44:59;99471.69;;;8.91;47.61
37858;BME280;23695;55.868;37.472;2024-03-17T12:47:28;99470.72;;;8.78;47.73
37858;BME280;23695;55.868;37.472;2024-03-17T12:49:56;99476.06;;;8.69;48.13
37858;BME280;23695;55.868;37.472;2024-03-17T12:52:29;99474.59;;;8.63;48.56
37858;BME280;23695;55.868;37.472;2024-03-17T12:55:18;99474.28;;;8.65;48.48
37858;BME280;23695;55.868;37.472;2024-03-17T12:57:45;99474.13;;;8.61;48.28
37858;BME280;23695;55.868;37.472;2024-03-17T13:00:17;99474.84;;;8.44;49.13
37858;BME280;23695;55.868;37.472;2024-03-17T13:02:48;99476.44;;;8.45;48.94
37858;BME280;23695;55.868;37.472;2024-03-17T13:05:15;99463.47;;;8.47;48.64
37858;BME280;23695;55.868;37.472;2024-03-17T13:07:41;99468.88;;;8.25;49.56
37858;BME280;23695;55.868;37.472;2024-03-17T13:10:08;99469.16;;;8.15;49.38